Hammel, Denmark
Current Conditions -  °F | °C
As of 3:20 AM on Saturday 20 Dec 2014 (Local Time) from EKKA Reporting Station
Hail Hail  
Wind Chill: 26°   Ceiling: 1500
Heat Index: 37°   Visibility: 5mi
Dew Point: 36°   Wind: 25mph
Humidity: 93%   Direction: 270°W
Pressure: 29.5"   Gusts: 41mph
Location:  56.26°N, 9.86°E
Report Text: EKKA 200220Z 27022G36KT 8000 -SHRAGS BKN015CB 03/02 Q0999
Loading
Personal Weather Stations






























Interactive Weather Map New forecast layout! Learn more

10-Day Weather Forecast

Advertisements
Track Severe Weather on mobile